Time;durP1;ratioP1;P1;durP2;ratioP2;P2;SDS_P1;SDS_P2;PMS_P1;PMS_P2;Temp;Humidity;BMP_temperature;BMP_pressure;BME280_temperature;BME280_humidity;BME280_pressure;Samples;Min_cycle;Max_cycle;Signal;HPM_P1;HPM_P2
2022/09/06 00:01:51;;;;;;;2.60;1.75;;;;;;;;;;5077184;28;20020;-77
2022/09/06 00:04:16;;;;;;;2.60;1.73;;;;;;;;;;5095033;28;20057;-77
2022/09/06 00:06:41;;;;;;;3.17;1.67;;;;;;;;;;5095486;28;20383;-77
2022/09/06 00:09:07;;;;;;;2.70;1.63;;;;;;;;;;5094980;28;20028;-77
2022/09/06 00:11:32;;;;;;;3.03;1.80;;;;;;;;;;5094816;28;20028;-78
2022/09/06 00:13:57;;;;;;;2.03;1.55;;;;;;;;;;5077083;28;20406;-77
2022/09/06 00:16:23;;;;;;;2.78;1.70;;;;;;;;;;5094983;28;20024;-77
2022/09/06 00:18:52;;;;;;;5.15;1.90;;;;;;;;;;5094817;28;20060;-78
2022/09/06 00:21:26;;;;;;;1.95;1.55;;;;;;;;;;5094700;28;20024;-77
2022/09/06 00:23:52;;;;;;;4.00;1.80;;;;;;;;;;5093673;28;20024;-77
2022/09/06 00:26:17;;;;;;;5.00;1.73;;;;;;;;;;5094416;28;20476;-77
2022/09/06 00:28:43;;;;;;;5.90;2.20;;;;;;;;;;5095012;28;20048;-78
2022/09/06 00:31:27;;;;;;;3.85;1.95;;;;;;;;;;5076555;28;20024;-77
2022/09/06 00:33:53;;;;;;;2.88;1.80;;;;;;;;;;5059508;28;20508;-77
2022/09/06 00:36:19;;;;;;;3.08;1.90;;;;;;;;;;5076601;28;20032;-77
2022/09/06 00:38:45;;;;;;;2.88;2.00;;;;;;;;;;5093613;28;20035;-77
2022/09/06 00:41:12;;;;;;;3.00;1.75;;;;;;;;;;5076859;28;20032;-78
2022/09/06 00:43:38;;;;;;;4.28;1.90;;;;;;;;;;5076455;28;20035;-77
2022/09/06 00:46:04;;;;;;;4.20;2.00;;;;;;;;;;5076020;28;20024;-77
2022/09/06 00:48:30;;;;;;;2.50;1.92;;;;;;;;;;5094199;28;20528;-78
2022/09/06 00:50:58;;;;;;;2.67;1.73;;;;;;;;;;5094079;28;20114;-78
2022/09/06 00:53:24;;;;;;;3.00;1.80;;;;;;;;;;5094340;28;20028;-77
2022/09/06 00:55:50;;;;;;;2.05;1.90;;;;;;;;;;5075934;28;20051;-77
2022/09/06 00:58:15;;;;;;;3.30;1.75;;;;;;;;;;5075673;28;20400;-78
2022/09/06 01:00:40;;;;;;;2.85;1.90;;;;;;;;;;5075973;28;20067;-77
2022/09/06 01:03:06;;;;;;;2.78;1.80;;;;;;;;;;5093882;28;20024;-77
2022/09/06 01:05:48;;;;;;;3.03;1.92;;;;;;;;;;5092649;28;20531;-78
2022/09/06 01:08:33;;;;;;;5.70;2.05;;;;;;;;;;5092511;28;20081;-77
2022/09/06 01:11:16;;;;;;;4.05;1.70;;;;;;;;;;5093719;28;20024;-77
2022/09/06 01:13:55;;;;;;;6.13;1.92;;;;;;;;;;5093918;28;20051;-77
2022/09/06 01:16:57;;;;;;;3.72;1.77;;;;;;;;;;5075462;28;20024;-77
2022/09/06 01:19:38;;;;;;;2.75;1.98;;;;;;;;;;5093434;28;20501;-77
2022/09/06 01:22:28;;;;;;;3.20;1.73;;;;;;;;;;5093472;28;20031;-77
2022/09/06 01:25:13;;;;;;;2.85;1.80;;;;;;;;;;5093430;28;20050;-77
2022/09/06 01:28:00;;;;;;;3.47;1.90;;;;;;;;;;5093416;28;20058;-77
2022/09/06 01:30:25;;;;;;;5.75;2.35;;;;;;;;;;5093439;28;20074;-77
2022/09/06 01:33:10;;;;;;;3.53;2.00;;;;;;;;;;5075321;28;20483;-77
2022/09/06 01:36:03;;;;;;;6.72;1.80;;;;;;;;;;5075512;28;20024;-77
2022/09/06 01:38:29;;;;;;;2.03;1.52;;;;;;;;;;5055387;28;20053;-77
2022/09/06 01:40:54;;;;;;;2.55;1.83;;;;;;;;;;5093422;28;20145;-78
2022/09/06 01:43:30;;;;;;;4.32;1.98;;;;;;;;;;5075446;28;20060;-77
2022/09/06 01:46:23;;;;;;;1.85;1.63;;;;;;;;;;5075144;28;20023;-77
2022/09/06 01:49:07;;;;;;;4.18;1.63;;;;;;;;;;5093882;28;20038;-78
2022/09/06 01:51:38;;;;;;;;;;;;;;;;;;5094153;28;20028;-76
2022/09/06 01:54:27;;;;;;;2.50;1.60;;;;;;;;;;5093178;28;19915;-77
2022/09/06 01:57:01;;;;;;;2.40;1.58;;;;;;;;;;5074969;28;20436;-77
2022/09/06 01:59:45;;;;;;;2.10;1.50;;;;;;;;;;5093247;28;20028;-77
2022/09/06 02:02:16;;;;;;;1.70;1.60;;;;;;;;;;5093246;28;20333;-77
2022/09/06 02:04:50;;;;;;;3.10;1.65;;;;;;;;;;5074983;28;20024;-77
2022/09/06 02:07:19;;;;;;;3.60;1.75;;;;;;;;;;5075173;28;20035;-77
2022/09/06 02:09:49;;;;;;;2.75;1.70;;;;;;;;;;5093451;28;20062;-77
2022/09/06 02:12:16;;;;;;;2.97;1.80;;;;;;;;;;5097144;28;20047;-77
2022/09/06 02:14:58;;;;;;;3.47;2.10;;;;;;;;;;5078922;28;20094;-77
2022/09/06 02:17:28;;;;;;;3.20;1.80;;;;;;;;;;5079267;28;20047;-77
2022/09/06 02:19:58;;;;;;;3.13;1.80;;;;;;;;;;5078705;28;20048;-77
2022/09/06 02:22:26;;;;;;;6.07;2.10;;;;;;;;;;5095978;28;20127;-77
2022/09/06 02:24:52;;;;;;;2.45;1.58;;;;;;;;;;5079091;28;20408;-78
2022/09/06 02:27:18;;;;;;;2.25;1.75;;;;;;;;;;5079015;28;20024;-77
2022/09/06 02:29:44;;;;;;;2.30;1.88;;;;;;;;;;5095250;28;20035;-77
2022/09/06 02:32:18;;;;;;;4.25;2.15;;;;;;;;;;5078908;28;20113;-77
2022/09/06 02:34:45;;;;;;;3.65;2.17;;;;;;;;;;5078686;28;20107;-77
2022/09/06 02:37:11;;;;;;;2.08;1.88;;;;;;;;;;5078954;28;20043;-77
2022/09/06 02:39:37;;;;;;;5.43;1.83;;;;;;;;;;5078783;28;20028;-77
2022/09/06 02:42:03;;;;;;;3.17;2.10;;;;;;;;;;5078428;28;20129;-77
2022/09/06 02:44:29;;;;;;;2.53;2.08;;;;;;;;;;5078657;28;20028;-78
2022/09/06 02:46:54;;;;;;;2.70;2.20;;;;;;;;;;5096420;28;20028;-77
2022/09/06 02:49:19;;;;;;;2.78;2.20;;;;;;;;;;5061544;28;20111;-77
2022/09/06 02:51:45;;;;;;;2.88;2.55;;;;;;;;;;5096448;28;20063;-77
2022/09/06 02:54:10;;;;;;;3.20;2.22;;;;;;;;;;5096393;28;20059;-77
2022/09/06 02:56:36;;;;;;;3.50;2.45;;;;;;;;;;5078132;28;20392;-77
2022/09/06 02:59:04;;;;;;;4.97;2.05;;;;;;;;;;5061523;28;20032;-77
2022/09/06 03:01:30;;;;;;;7.95;1.85;;;;;;;;;;5095265;28;20020;-77
2022/09/06 03:03:56;;;;;;;3.10;2.03;;;;;;;;;;5096448;28;20032;-77
2022/09/06 03:06:21;;;;;;;4.25;1.90;;;;;;;;;;5078436;28;20498;-77
2022/09/06 03:08:47;;;;;;;2.88;1.98;;;;;;;;;;5078192;28;20108;-77
2022/09/06 03:11:12;;;;;;;4.57;1.85;;;;;;;;;;5077977;28;20024;-77
2022/09/06 03:13:38;;;;;;;2.53;1.60;;;;;;;;;;5077814;28;20394;-77
2022/09/06 03:16:04;;;;;;;1.80;1.70;;;;;;;;;;5077948;28;20454;-78
2022/09/06 03:18:30;;;;;;;2.30;1.65;;;;;;;;;;5078168;28;20044;-77
2022/09/06 03:20:56;;;;;;;2.38;1.95;;;;;;;;;;5077631;28;20506;-77
2022/09/06 03:23:24;;;;;;;2.53;1.80;;;;;;;;;;5078279;28;20071;-77
2022/09/06 03:25:49;;;;;;;2.33;2.00;;;;;;;;;;5077889;28;20031;-77
2022/09/06 03:28:16;;;;;;;1.90;1.80;;;;;;;;;;5078152;28;20028;-77
2022/09/06 03:30:44;;;;;;;2.80;1.80;;;;;;;;;;5078287;28;20031;-77
2022/09/06 03:33:09;;;;;;;5.40;1.73;;;;;;;;;;5060698;28;20028;-77
2022/09/06 03:35:35;;;;;;;5.00;1.70;;;;;;;;;;5077732;28;20055;-78
2022/09/06 03:38:00;;;;;;;2.80;2.05;;;;;;;;;;5077314;28;20031;-78
2022/09/06 03:40:26;;;;;;;1.73;1.52;;;;;;;;;;5095688;28;20034;-78
2022/09/06 03:42:51;;;;;;;4.85;1.98;;;;;;;;;;5077748;28;20384;-77
2022/09/06 03:45:16;;;;;;;2.78;1.80;;;;;;;;;;5077293;28;20032;-77
2022/09/06 03:47:42;;;;;;;2.28;1.80;;;;;;;;;;5077318;28;20042;-78
2022/09/06 03:50:07;;;;;;;2.10;1.73;;;;;;;;;;5077554;28;20055;-78
2022/09/06 03:52:33;;;;;;;5.60;2.00;;;;;;;;;;5077127;28;20059;-78
2022/09/06 03:54:58;;;;;;;3.67;1.90;;;;;;;;;;5077224;28;20032;-77
2022/09/06 03:57:24;;;;;;;2.05;1.75;;;;;;;;;;5095121;28;20020;-78
2022/09/06 03:59:49;;;;;;;1.73;1.45;;;;;;;;;;5077008;28;20032;-77
2022/09/06 04:02:14;;;;;;;4.60;1.80;;;;;;;;;;5095020;28;20032;-77
2022/09/06 04:04:40;;;;;;;1.70;1.60;;;;;;;;;;5076967;28;20123;-78
2022/09/06 04:07:05;;;;;;;2.45;1.52;;;;;;;;;;5094964;28;20028;-77
2022/09/06 04:09:30;;;;;;;2.70;1.90;;;;;;;;;;5076977;28;20368;-78
2022/09/06 04:11:56;;;;;;;2.72;1.75;;;;;;;;;;5077379;28;20028;-79
2022/09/06 04:14:21;;;;;;;3.28;2.13;;;;;;;;;;5095100;28;20144;-78
2022/09/06 04:16:46;;;;;;;13.63;3.35;;;;;;;;;;5094921;28;20036;-79
2022/09/06 04:19:12;;;;;;;12.50;3.53;;;;;;;;;;5094549;28;20500;-78
2022/09/06 04:21:37;;;;;;;9.00;2.85;;;;;;;;;;5076426;28;20043;-78
2022/09/06 04:24:03;;;;;;;30.33;7.13;;;;;;;;;;5076652;28;20073;-78
2022/09/06 04:26:28;;;;;;;43.67;9.23;;;;;;;;;;5076539;28;20028;-79
2022/09/06 04:28:54;;;;;;;32.15;7.32;;;;;;;;;;5094558;28;20457;-79
2022/09/06 04:31:19;;;;;;;18.48;5.97;;;;;;;;;;5076809;28;20048;-77
2022/09/06 04:33:45;;;;;;;17.02;5.90;;;;;;;;;;5094265;28;20035;-77
2022/09/06 04:36:11;;;;;;;13.68;4.30;;;;;;;;;;5094829;28;20051;-77
2022/09/06 04:38:38;;;;;;;11.18;3.58;;;;;;;;;;5077054;28;20038;-76
2022/09/06 04:41:04;;;;;;;8.95;3.22;;;;;;;;;;5095433;28;20388;-77
2022/09/06 04:43:29;;;;;;;15.63;3.70;;;;;;;;;;5076926;28;20031;-78
2022/09/06 04:45:55;;;;;;;7.72;2.67;;;;;;;;;;5094581;28;20024;-78
2022/09/06 04:48:20;;;;;;;19.08;2.80;;;;;;;;;;5095008;28;20149;-77
2022/09/06 04:50:45;;;;;;;8.57;3.58;;;;;;;;;;5076717;28;20036;-77
2022/09/06 04:53:11;;;;;;;7.65;3.10;;;;;;;;;;5076657;28;20040;-77
2022/09/06 04:55:37;;;;;;;9.05;3.42;;;;;;;;;;5076294;28;20032;-77
2022/09/06 04:58:03;;;;;;;5.20;3.05;;;;;;;;;;5076313;28;20054;-77
2022/09/06 05:00:30;;;;;;;8.73;2.65;;;;;;;;;;5076430;28;20487;-77
2022/09/06 05:02:56;;;;;;;9.10;3.45;;;;;;;;;;5076434;28;20023;-77
2022/09/06 05:05:21;;;;;;;6.53;2.92;;;;;;;;;;5076052;28;20119;-77
2022/09/06 05:07:50;;;;;;;6.80;2.85;;;;;;;;;;5076362;28;20028;-77
2022/09/06 05:10:15;;;;;;;9.40;2.63;;;;;;;;;;5092894;28;20533;-76
2022/09/06 05:12:40;;;;;;;5.45;3.00;;;;;;;;;;5094233;28;20028;-77
2022/09/06 05:15:06;;;;;;;5.28;2.50;;;;;;;;;;5094322;28;20471;-77
2022/09/06 05:17:32;;;;;;;8.20;3.10;;;;;;;;;;5094373;28;20024;-77
2022/09/06 05:19:57;;;;;;;6.30;3.17;;;;;;;;;;5093903;28;20062;-77
2022/09/06 05:22:22;;;;;;;6.13;3.00;;;;;;;;;;5075762;28;20086;-77
2022/09/06 05:24:48;;;;;;;7.95;3.38;;;;;;;;;;5076419;28;20038;-78
2022/09/06 05:27:14;;;;;;;10.75;3.40;;;;;;;;;;5075807;28;20028;-77
2022/09/06 05:29:39;;;;;;;8.30;3.13;;;;;;;;;;5094419;28;20032;-77
2022/09/06 05:32:05;;;;;;;5.18;3.20;;;;;;;;;;5094026;28;20378;-76
2022/09/06 05:34:30;;;;;;;12.27;3.70;;;;;;;;;;5075983;28;20052;-77
2022/09/06 05:36:55;;;;;;;7.13;3.38;;;;;;;;;;5094232;28;20066;-77
2022/09/06 05:39:21;;;;;;;5.28;3.13;;;;;;;;;;5093985;28;20078;-77
2022/09/06 05:41:47;;;;;;;6.60;3.15;;;;;;;;;;5058909;28;20048;-77
2022/09/06 05:44:13;;;;;;;9.68;3.05;;;;;;;;;;5075029;28;20042;-77
2022/09/06 05:46:45;;;;;;;6.85;3.35;;;;;;;;;;5093980;28;20479;-77
2022/09/06 05:49:11;;;;;;;10.18;3.03;;;;;;;;;;5077207;28;20392;-77
2022/09/06 05:51:37;;;;;;;7.70;3.13;;;;;;;;;;5077735;28;20024;-76
2022/09/06 05:54:02;;;;;;;7.43;3.03;;;;;;;;;;5094072;28;20129;-76
2022/09/06 05:56:28;;;;;;;9.18;3.00;;;;;;;;;;5076939;28;20024;-76
2022/09/06 05:58:54;;;;;;;7.57;2.88;;;;;;;;;;5076548;28;20098;-76
2022/09/06 06:01:22;;;;;;;5.10;2.78;;;;;;;;;;5094840;28;20390;-76
2022/09/06 06:04:01;;;;;;;6.47;2.83;;;;;;;;;;5076845;28;20067;-76
2022/09/06 06:06:29;;;;;;;8.10;2.50;;;;;;;;;;5077125;28;20024;-76
2022/09/06 06:08:55;;;;;;;5.40;2.30;;;;;;;;;;5076064;28;20034;-76
2022/09/06 06:11:21;;;;;;;5.82;2.70;;;;;;;;;;5075773;28;20450;-76
2022/09/06 06:13:46;;;;;;;5.10;2.60;;;;;;;;;;5075655;28;20031;-76
2022/09/06 06:16:14;;;;;;;5.93;2.65;;;;;;;;;;5075914;28;20102;-77
2022/09/06 06:18:41;;;;;;;5.93;2.90;;;;;;;;;;5059934;28;20032;-77
2022/09/06 06:21:10;;;;;;;3.45;2.40;;;;;;;;;;5043966;28;20086;-77
2022/09/06 06:23:36;;;;;;;6.28;2.28;;;;;;;;;;5076284;28;20038;-77
2022/09/06 06:26:02;;;;;;;7.13;2.40;;;;;;;;;;5093984;28;20076;-77
2022/09/06 06:28:27;;;;;;;7.03;2.30;;;;;;;;;;5060729;28;20023;-77
2022/09/06 06:30:53;;;;;;;4.47;2.88;;;;;;;;;;5076369;28;20028;-77
2022/09/06 06:33:19;;;;;;;7.15;2.88;;;;;;;;;;5074955;28;20036;-77
2022/09/06 06:35:57;;;;;;;7.03;2.80;;;;;;;;;;5075330;28;20158;-77
2022/09/06 06:38:23;;;;;;;3.47;2.90;;;;;;;;;;5058238;28;20561;-77
2022/09/06 06:40:48;;;;;;;5.20;2.85;;;;;;;;;;5075861;28;20032;-77
2022/09/06 06:43:13;;;;;;;7.78;3.13;;;;;;;;;;5058305;28;20113;-77
2022/09/06 06:45:39;;;;;;;5.90;2.92;;;;;;;;;;5093110;28;20468;-77
2022/09/06 06:48:04;;;;;;;8.43;3.08;;;;;;;;;;5092951;28;20487;-77
2022/09/06 06:50:30;;;;;;;6.78;2.85;;;;;;;;;;5042492;28;20127;-77
2022/09/06 06:52:55;;;;;;;5.60;3.13;;;;;;;;;;5075622;28;20046;-77
2022/09/06 06:55:20;;;;;;;5.40;2.40;;;;;;;;;;5074791;28;20039;-77
2022/09/06 06:57:46;;;;;;;3.30;2.20;;;;;;;;;;5061610;28;20042;-76
2022/09/06 07:00:11;;;;;;;6.57;2.38;;;;;;;;;;5078876;28;20102;-76
2022/09/06 07:02:37;;;;;;;3.95;2.30;;;;;;;;;;5078503;28;20036;-77
2022/09/06 07:05:02;;;;;;;7.97;2.50;;;;;;;;;;5061715;28;20027;-76
2022/09/06 07:07:28;;;;;;;3.40;2.13;;;;;;;;;;5078356;28;20475;-77
2022/09/06 07:09:53;;;;;;;4.78;1.88;;;;;;;;;;5078366;28;20038;-77
2022/09/06 07:12:19;;;;;;;2.83;2.00;;;;;;;;;;5096835;28;20020;-77
2022/09/06 07:14:44;;;;;;;6.35;2.00;;;;;;;;;;5078244;28;20144;-76
2022/09/06 07:17:09;;;;;;;2.85;2.20;;;;;;;;;;5078379;28;20115;-77
2022/09/06 07:19:35;;;;;;;5.15;2.08;;;;;;;;;;5078053;28;20055;-76
2022/09/06 07:22:00;;;;;;;2.72;2.00;;;;;;;;;;5096156;28;20031;-76
2022/09/06 07:24:26;;;;;;;6.35;2.38;;;;;;;;;;5078002;28;20028;-76
2022/09/06 07:26:51;;;;;;;4.55;2.15;;;;;;;;;;5078082;28;20445;-77
2022/09/06 07:29:16;;;;;;;2.40;1.92;;;;;;;;;;5096425;28;20039;-77
2022/09/06 07:31:42;;;;;;;5.40;2.10;;;;;;;;;;5078604;28;20123;-77
2022/09/06 07:34:07;;;;;;;3.97;1.80;;;;;;;;;;5096014;28;20027;-77
2022/09/06 07:36:32;;;;;;;3.88;1.77;;;;;;;;;;5061169;28;20351;-76
2022/09/06 07:38:58;;;;;;;5.30;1.98;;;;;;;;;;5095990;28;20028;-76
2022/09/06 07:41:23;;;;;;;2.75;1.70;;;;;;;;;;5096434;28;20032;-76
2022/09/06 07:43:53;;;;;;;2.85;2.05;;;;;;;;;;5096121;28;20097;-76
2022/09/06 07:46:18;;;;;;;4.88;1.80;;;;;;;;;;5095003;28;20043;-76
2022/09/06 07:48:45;;;;;;;3.67;1.85;;;;;;;;;;5077878;28;20032;-76
2022/09/06 07:51:13;;;;;;;3.33;1.55;;;;;;;;;;5078349;28;20020;-76
2022/09/06 07:53:40;;;;;;;3.22;1.88;;;;;;;;;;5077583;28;20024;-76
2022/09/06 07:56:07;;;;;;;6.30;2.00;;;;;;;;;;5094352;28;20020;-76
2022/09/06 07:58:33;;;;;;;3.08;2.42;;;;;;;;;;5078143;28;20031;-76
2022/09/06 08:01:30;;;;;;;2.30;1.63;;;;;;;;;;5077333;28;20028;-77
2022/09/06 08:04:07;;;;;;;3.45;1.83;;;;;;;;;;5060687;28;20391;-77
2022/09/06 08:06:34;;;;;;;2.60;1.80;;;;;;;;;;5077499;28;20436;-77
2022/09/06 08:09:01;;;;;;;4.47;1.77;;;;;;;;;;5093270;28;20028;-77
2022/09/06 08:11:28;;;;;;;2.85;2.15;;;;;;;;;;5077818;28;20066;-77
2022/09/06 08:13:54;;;;;;;2.78;1.80;;;;;;;;;;5094628;28;20020;-77
2022/09/06 08:16:23;;;;;;;2.65;1.77;;;;;;;;;;5094804;28;20392;-77
2022/09/06 08:18:50;;;;;;;2.58;1.90;;;;;;;;;;5060455;28;20494;-78
2022/09/06 08:21:15;;;;;;;3.28;1.70;;;;;;;;;;5077430;28;20384;-77
2022/09/06 08:23:53;;;;;;;6.20;2.00;;;;;;;;;;5077492;28;20028;-77
2022/09/06 08:26:20;;;;;;;3.97;2.03;;;;;;;;;;5060754;28;20027;-75
2022/09/06 08:28:54;;;;;;;3.20;1.95;;;;;;;;;;5077899;28;20403;-77
2022/09/06 08:31:19;;;;;;;7.53;2.30;;;;;;;;;;5076798;28;20066;-78
2022/09/06 08:33:46;;;;;;;8.73;2.38;;;;;;;;;;5094917;28;20055;-76
2022/09/06 08:36:12;;;;;;;11.73;2.63;;;;;;;;;;5077208;28;20031;-76
2022/09/06 08:38:38;;;;;;;8.90;2.45;;;;;;;;;;5060029;28;20027;-79
2022/09/06 08:41:15;;;;;;;6.70;2.45;;;;;;;;;;5076904;28;20034;-77
2022/09/06 08:43:53;;;;;;;4.70;2.30;;;;;;;;;;5076474;28;20488;-76
2022/09/06 08:46:21;;;;;;;7.53;2.00;;;;;;;;;;5077337;28;20035;-77
2022/09/06 08:48:46;;;;;;;4.97;2.15;;;;;;;;;;5093289;28;20035;-77
2022/09/06 08:51:36;;;;;;;4.15;1.85;;;;;;;;;;5059621;28;20089;-76
2022/09/06 08:54:12;;;;;;;3.80;2.00;;;;;;;;;;5095300;28;20016;-77
2022/09/06 08:56:48;;;;;;;3.92;2.10;;;;;;;;;;5076238;28;20141;-76
2022/09/06 08:59:16;;;;;;;2.92;1.90;;;;;;;;;;5076340;28;20055;-77
2022/09/06 09:01:48;;;;;;;7.60;1.70;;;;;;;;;;5076837;28;20020;-77
2022/09/06 09:04:16;;;;;;;5.50;1.60;;;;;;;;;;5076208;28;20035;-78
2022/09/06 09:06:45;;;;;;;4.32;1.95;;;;;;;;;;5076070;28;20070;-77
2022/09/06 09:09:14;;;;;;;3.53;1.58;;;;;;;;;;5094436;28;20119;-77
2022/09/06 09:11:46;;;;;;;2.50;1.60;;;;;;;;;;5076372;28;20016;-78
2022/09/06 09:14:11;;;;;;;6.15;1.90;;;;;;;;;;5093273;28;20043;-78
2022/09/06 09:16:37;;;;;;;5.22;1.70;;;;;;;;;;5075827;28;20479;-77
2022/09/06 09:19:04;;;;;;;4.50;1.67;;;;;;;;;;5093808;28;20059;-77
2022/09/06 09:21:32;;;;;;;2.72;1.70;;;;;;;;;;5075738;28;20020;-77
2022/09/06 09:24:05;;;;;;;3.38;1.90;;;;;;;;;;5076051;28;20031;-76
2022/09/06 09:26:37;;;;;;;2.15;1.65;;;;;;;;;;5076428;28;20059;-77
2022/09/06 09:29:08;;;;;;;2.45;1.52;;;;;;;;;;5093055;28;20024;-77
2022/09/06 09:31:54;;;;;;;2.33;1.70;;;;;;;;;;5076383;28;20016;-76
2022/09/06 09:34:36;;;;;;;3.03;1.50;;;;;;;;;;5093437;28;20077;-76
2022/09/06 09:37:11;;;;;;;1.95;1.65;;;;;;;;;;5092884;28;20121;-75
2022/09/06 09:39:38;;;;;;;2.22;1.75;;;;;;;;;;5075562;28;20020;-77
2022/09/06 09:42:04;;;;;;;1.70;1.60;;;;;;;;;;5075542;28;20491;-78
2022/09/06 09:44:29;;;;;;;4.53;1.63;;;;;;;;;;5093698;28;20032;-76
2022/09/06 09:46:55;;;;;;;3.90;1.80;;;;;;;;;;5075552;28;20035;-77
2022/09/06 09:49:20;;;;;;;4.18;1.70;;;;;;;;;;5076125;28;20058;-77
2022/09/06 09:52:10;;;;;;;2.58;1.60;;;;;;;;;;5093568;28;20095;-77
2022/09/06 09:54:37;;;;;;;5.03;1.45;;;;;;;;;;5075721;28;20464;-77
2022/09/06 09:57:08;;;;;;;2.13;1.70;;;;;;;;;;5075624;28;20036;-77
2022/09/06 09:59:41;;;;;;;2.45;1.60;;;;;;;;;;5075366;28;20493;-77
2022/09/06 10:02:50;;;;;;;3.38;1.80;;;;;;;;;;5092180;28;20020;-78
2022/09/06 10:05:19;;;;;;;1.52;1.40;;;;;;;;;;5070372;28;20036;-76
2022/09/06 10:07:47;;;;;;;2.20;1.48;;;;;;;;;;5092137;28;20166;-77
2022/09/06 10:10:26;;;;;;;2.45;1.50;;;;;;;;;;5076139;28;20032;-76
2022/09/06 10:13:25;;;;;;;2.10;1.40;;;;;;;;;;5060978;28;20024;-78
2022/09/06 10:15:52;;;;;;;2.15;1.50;;;;;;;;;;5034814;28;20043;-77
2022/09/06 10:18:41;;;;;;;3.05;1.70;;;;;;;;;;5095146;28;20024;-77
2022/09/06 10:21:16;;;;;;;1.48;1.38;;;;;;;;;;5061247;28;20043;-77
2022/09/06 10:23:53;;;;;;;2.00;1.60;;;;;;;;;;5092318;28;20020;-77
2022/09/06 10:26:34;;;;;;;2.05;1.40;;;;;;;;;;5093567;28;20024;-78
2022/09/06 10:29:04;;;;;;;3.38;1.55;;;;;;;;;;5076979;28;20027;-79
2022/09/06 10:31:40;;;;;;;2.90;1.30;;;;;;;;;;5060689;28;20022;-77
2022/09/06 10:34:08;;;;;;;4.05;1.52;;;;;;;;;;5097177;28;20032;-76
2022/09/06 10:36:36;;;;;;;3.17;1.30;;;;;;;;;;5097704;28;20020;-76
2022/09/06 10:39:30;;;;;;;1.60;1.30;;;;;;;;;;5079387;28;20040;-77
2022/09/06 10:42:19;;;;;;;6.10;1.50;;;;;;;;;;5078783;28;20024;-77
2022/09/06 10:45:12;;;;;;;1.60;1.30;;;;;;;;;;5051197;28;20268;-76
2022/09/06 10:47:55;;;;;;;1.85;1.40;;;;;;;;;;5096269;28;20483;-77
2022/09/06 10:50:29;;;;;;;3.45;1.40;;;;;;;;;;5097100;28;20107;-76
2022/09/06 10:53:03;;;;;;;2.65;1.45;;;;;;;;;;5096229;28;20535;-76
2022/09/06 10:55:31;;;;;;;3.10;1.50;;;;;;;;;;5095621;28;20034;-77
2022/09/06 10:58:03;;;;;;;2.20;1.25;;;;;;;;;;5079024;28;20537;-77
2022/09/06 11:00:30;;;;;;;2.05;1.55;;;;;;;;;;5079345;28;20150;-77
2022/09/06 11:03:12;;;;;;;1.60;1.30;;;;;;;;;;5078551;28;20039;-78
2022/09/06 11:05:43;;;;;;;2.95;1.48;;;;;;;;;;5078662;28;20027;-77
2022/09/06 11:08:16;;;;;;;3.35;1.60;;;;;;;;;;5061717;28;20494;-77
2022/09/06 11:10:46;;;;;;;1.90;1.30;;;;;;;;;;5078755;28;20028;-77
2022/09/06 11:13:16;;;;;;;2.13;1.63;;;;;;;;;;5095242;28;20028;-77
2022/09/06 11:16:02;;;;;;;2.17;1.50;;;;;;;;;;5095537;28;20467;-77
2022/09/06 11:18:47;;;;;;;1.83;1.42;;;;;;;;;;5078442;28;20032;-77
2022/09/06 11:21:40;;;;;;;3.33;1.40;;;;;;;;;;5096225;28;20458;-77
2022/09/06 11:24:15;;;;;;;2.38;1.50;;;;;;;;;;5096831;28;20419;-77
2022/09/06 11:27:03;;;;;;;3.22;1.30;;;;;;;;;;5061598;28;20063;-77
2022/09/06 11:29:29;;;;;;;2.03;1.50;;;;;;;;;;5096434;28;20106;-77
2022/09/06 11:31:56;;;;;;;1.85;1.33;;;;;;;;;;5095158;28;20348;-77
2022/09/06 11:34:27;;;;;;;1.75;1.35;;;;;;;;;;5077957;28;20020;-77
2022/09/06 11:36:55;;;;;;;5.70;1.45;;;;;;;;;;5078313;28;20107;-77
2022/09/06 11:39:41;;;;;;;1.90;1.40;;;;;;;;;;5078190;28;20023;-77
2022/09/06 11:42:07;;;;;;;1.95;1.17;;;;;;;;;;5076852;28;20020;-77
2022/09/06 11:44:48;;;;;;;1.70;1.30;;;;;;;;;;5095649;28;20032;-77
2022/09/06 11:47:36;;;;;;;1.23;1.13;;;;;;;;;;5096074;28;20460;-77
2022/09/06 11:50:52;;;;;;;2.83;1.20;;;;;;;;;;5060968;28;20024;-77
2022/09/06 11:53:18;;;;;;;1.73;1.20;;;;;;;;;;5013953;28;20026;-77
2022/09/06 11:56:09;;;;;;;1.30;1.20;;;;;;;;;;5069223;28;20058;-77
2022/09/06 11:58:41;;;;;;;1.60;1.42;;;;;;;;;;5060691;28;20020;-77
2022/09/06 12:01:12;;;;;;;2.92;1.40;;;;;;;;;;5095722;28;20023;-77
2022/09/06 12:03:40;;;;;;;1.30;1.20;;;;;;;;;;5077391;28;20062;-77
2022/09/06 12:06:19;;;;;;;2.25;1.20;;;;;;;;;;5077333;28;20493;-77
2022/09/06 12:08:49;;;;;;;1.40;1.30;;;;;;;;;;5077369;28;20020;-77
2022/09/06 12:11:33;;;;;;;1.83;1.38;;;;;;;;;;5077324;28;20384;-76
2022/09/06 12:14:08;;;;;;;2.35;1.45;;;;;;;;;;5077191;28;20024;-77
2022/09/06 12:17:12;;;;;;;4.30;1.40;;;;;;;;;;5077631;28;20036;-77
2022/09/06 12:19:50;;;;;;;1.45;1.20;;;;;;;;;;5013086;28;20089;-77
2022/09/06 12:22:34;;;;;;;1.40;1.30;;;;;;;;;;4980432;28;20037;-76
2022/09/06 12:25:20;;;;;;;3.05;1.48;;;;;;;;;;5013611;28;20506;-77
2022/09/06 12:27:53;;;;;;;3.50;1.50;;;;;;;;;;5013069;28;20042;-77
2022/09/06 12:30:37;;;;;;;1.42;1.30;;;;;;;;;;5013270;28;20038;-77
2022/09/06 12:33:29;;;;;;;1.98;1.30;;;;;;;;;;4996476;28;20128;-77
2022/09/06 12:36:13;;;;;;;2.83;1.40;;;;;;;;;;5004637;28;20112;-77
2022/09/06 12:38:38;;;;;;;3.17;1.33;;;;;;;;;;4996643;28;20129;-77
2022/09/06 12:41:04;;;;;;;3.35;1.40;;;;;;;;;;4979985;28;20034;-77
2022/09/06 12:43:34;;;;;;;2.53;1.60;;;;;;;;;;4996923;28;20046;-77
2022/09/06 12:46:01;;;;;;;2.75;1.65;;;;;;;;;;4997030;28;20037;-77
2022/09/06 12:48:28;;;;;;;3.97;1.73;;;;;;;;;;5012563;28;20434;-77
2022/09/06 12:51:15;;;;;;;6.13;1.52;;;;;;;;;;5054309;28;20107;-77
2022/09/06 12:53:49;;;;;;;5.07;1.90;;;;;;;;;;5076938;28;20102;-77
2022/09/06 12:56:19;;;;;;;4.95;1.98;;;;;;;;;;5076242;28;20107;-77
2022/09/06 12:58:44;;;;;;;2.88;1.80;;;;;;;;;;5076656;28;20024;-77
2022/09/06 13:01:23;;;;;;;3.70;1.80;;;;;;;;;;5076175;28;20138;-77
2022/09/06 13:04:03;;;;;;;5.20;2.00;;;;;;;;;;5094900;28;20119;-77
2022/09/06 13:06:37;;;;;;;3.95;1.90;;;;;;;;;;5076441;28;20181;-77
2022/09/06 13:09:04;;;;;;;3.72;1.90;;;;;;;;;;5059445;28;20032;-77
2022/09/06 13:11:33;;;;;;;3.03;1.70;;;;;;;;;;5076221;28;20016;-77
2022/09/06 13:14:00;;;;;;;3.85;2.00;;;;;;;;;;5059356;28;20024;-76
2022/09/06 13:16:28;;;;;;;3.25;2.03;;;;;;;;;;5076163;28;20056;-77
2022/09/06 13:18:54;;;;;;;3.45;1.85;;;;;;;;;;5059242;28;20044;-77
2022/09/06 13:21:30;;;;;;;3.38;2.13;;;;;;;;;;5075973;28;20024;-77
2022/09/06 13:23:57;;;;;;;2.35;1.90;;;;;;;;;;5075952;28;20022;-77
2022/09/06 13:26:37;;;;;;;2.53;1.83;;;;;;;;;;5075776;28;20149;-77
2022/09/06 13:29:15;;;;;;;4.10;2.05;;;;;;;;;;5075866;28;20024;-77
2022/09/06 13:31:44;;;;;;;4.13;1.83;;;;;;;;;;5094123;28;20052;-77
2022/09/06 13:34:19;;;;;;;8.40;2.00;;;;;;;;;;5075737;28;20031;-77
2022/09/06 13:36:49;;;;;;;2.55;1.85;;;;;;;;;;5075751;28;20027;-77
2022/09/06 13:39:34;;;;;;;4.63;2.30;;;;;;;;;;5075576;28;20498;-78
2022/09/06 13:42:23;;;;;;;4.72;1.90;;;;;;;;;;5074940;28;20028;-77
2022/09/06 13:44:49;;;;;;;3.17;2.10;;;;;;;;;;5075532;28;20422;-78
2022/09/06 13:47:16;;;;;;;3.25;1.90;;;;;;;;;;5075863;28;20051;-77
2022/09/06 13:49:42;;;;;;;8.02;2.50;;;;;;;;;;5076088;28;20027;-78
2022/09/06 13:52:07;;;;;;;8.13;2.53;;;;;;;;;;5093805;28;20020;-78
2022/09/06 13:54:33;;;;;;;6.35;2.35;;;;;;;;;;5060558;28;20458;-79
2022/09/06 13:57:00;;;;;;;7.25;3.20;;;;;;;;;;5076868;28;20056;-79
2022/09/06 13:59:26;;;;;;;5.13;2.05;;;;;;;;;;5061225;28;20455;-78
2022/09/06 14:02:08;;;;;;;4.32;2.35;;;;;;;;;;5061375;28;20016;-78
2022/09/06 14:04:35;;;;;;;5.05;2.10;;;;;;;;;;5078489;28;20024;-78
2022/09/06 14:07:00;;;;;;;4.50;2.05;;;;;;;;;;5076643;28;20047;-78
2022/09/06 14:09:25;;;;;;;5.55;2.20;;;;;;;;;;5060447;28;20047;-79
2022/09/06 14:11:51;;;;;;;4.90;1.80;;;;;;;;;;5077734;28;20024;-78
2022/09/06 14:14:16;;;;;;;3.50;2.15;;;;;;;;;;5095112;28;20060;-79
2022/09/06 14:16:43;;;;;;;2.40;1.90;;;;;;;;;;5078154;28;20097;-79
2022/09/06 14:19:09;;;;;;;4.35;2.00;;;;;;;;;;5077176;28;20126;-78
2022/09/06 14:21:34;;;;;;;5.88;1.92;;;;;;;;;;5060019;28;20487;-79
2022/09/06 14:24:00;;;;;;;3.65;2.10;;;;;;;;;;5059793;28;20090;-79
2022/09/06 14:26:26;;;;;;;3.88;1.98;;;;;;;;;;5095579;28;20032;-79
2022/09/06 14:28:51;;;;;;;2.80;2.25;;;;;;;;;;5094963;28;20060;-79
2022/09/06 14:31:22;;;;;;;3.08;2.00;;;;;;;;;;5060274;28;20102;-79
2022/09/06 14:33:48;;;;;;;3.03;1.73;;;;;;;;;;5076902;28;20038;-79
2022/09/06 14:36:15;;;;;;;2.28;1.75;;;;;;;;;;5076630;28;20115;-79
2022/09/06 14:38:43;;;;;;;5.53;1.85;;;;;;;;;;5078108;28;20495;-79
2022/09/06 14:41:09;;;;;;;3.42;1.88;;;;;;;;;;5078005;28;20036;-79
2022/09/06 14:43:35;;;;;;;5.30;2.00;;;;;;;;;;5077239;28;20115;-79
2022/09/06 14:46:02;;;;;;;3.65;2.22;;;;;;;;;;5076163;28;20028;-78
2022/09/06 14:48:29;;;;;;;2.95;1.85;;;;;;;;;;5094012;28;20028;-78
2022/09/06 14:50:55;;;;;;;3.17;1.70;;;;;;;;;;5076653;28;20377;-79
2022/09/06 14:53:20;;;;;;;3.42;2.17;;;;;;;;;;5076413;28;20127;-79
2022/09/06 14:55:45;;;;;;;3.40;2.10;;;;;;;;;;5077053;28;20036;-79
2022/09/06 14:58:12;;;;;;;3.88;1.85;;;;;;;;;;5076903;28;20103;-79
2022/09/06 15:00:38;;;;;;;4.88;1.90;;;;;;;;;;5060369;28;20028;-78
2022/09/06 15:03:03;;;;;;;1.73;1.60;;;;;;;;;;5060421;28;20046;-78